sensor_id;sensor_type;location;lat;lon;timestamp;temperature;humidity
25568;DHT22;13455;51.480;7.594;2022-11-21T00:01:53;3.90;99.90
25568;DHT22;13455;51.480;7.594;2022-11-21T00:04:18;3.90;99.90
25568;DHT22;13455;51.480;7.594;2022-11-21T00:06:44;3.80;99.90
25568;DHT22;13455;51.480;7.594;2022-11-21T00:09:09;3.70;99.90
25568;DHT22;13455;51.480;7.594;2022-11-21T00:11:35;3.70;99.90
25568;DHT22;13455;51.480;7.594;2022-11-21T00:14:00;3.70;99.90
25568;DHT22;13455;51.480;7.594;2022-11-21T00:16:26;3.50;99.90
25568;DHT22;13455;51.480;7.594;2022-11-21T00:18:52;3.70;99.90
25568;DHT22;13455;51.480;7.594;2022-11-21T00:21:18;3.60;99.90
25568;DHT22;13455;51.480;7.594;2022-11-21T00:23:45;3.60;99.90
25568;DHT22;13455;51.480;7.594;2022-11-21T00:26:12;3.60;99.90
25568;DHT22;13455;51.480;7.594;2022-11-21T00:28:38;3.60;99.90
25568;DHT22;13455;51.480;7.594;2022-11-21T00:31:05;3.60;99.90
25568;DHT22;13455;51.480;7.594;2022-11-21T00:33:31;3.50;99.90
25568;DHT22;13455;51.480;7.594;2022-11-21T00:35:57;3.50;99.90
25568;DHT22;13455;51.480;7.594;2022-11-21T00:38:22;3.50;99.90
25568;DHT22;13455;51.480;7.594;2022-11-21T00:40:51;3.50;99.90
25568;DHT22;13455;51.480;7.594;2022-11-21T00:43:16;3.40;99.90
25568;DHT22;13455;51.480;7.594;2022-11-21T00:45:42;3.30;99.90
25568;DHT22;13455;51.480;7.594;2022-11-21T00:48:08;3.40;99.90
25568;DHT22;13455;51.480;7.594;2022-11-21T00:50:33;3.40;99.90
25568;DHT22;13455;51.480;7.594;2022-11-21T00:52:59;3.10;99.90
25568;DHT22;13455;51.480;7.594;2022-11-21T00:55:24;3.30;99.90
25568;DHT22;13455;51.480;7.594;2022-11-21T00:57:50;3.30;99.90
25568;DHT22;13455;51.480;7.594;2022-11-21T01:00:17;3.10;99.90
25568;DHT22;13455;51.480;7.594;2022-11-21T01:02:43;3.30;99.90
25568;DHT22;13455;51.480;7.594;2022-11-21T01:05:08;3.30;99.90
25568;DHT22;13455;51.480;7.594;2022-11-21T01:07:34;3.30;99.90
25568;DHT22;13455;51.480;7.594;2022-11-21T01:10:00;3.30;99.90
25568;DHT22;13455;51.480;7.594;2022-11-21T01:12:25;3.20;99.90
25568;DHT22;13455;51.480;7.594;2022-11-21T01:14:51;3.20;99.90
25568;DHT22;13455;51.480;7.594;2022-11-21T01:17:17;3.20;99.90
25568;DHT22;13455;51.480;7.594;2022-11-21T01:19:43;3.20;99.90
25568;DHT22;13455;51.480;7.594;2022-11-21T01:22:08;3.20;99.90
25568;DHT22;13455;51.480;7.594;2022-11-21T01:24:34;3.30;99.90
25568;DHT22;13455;51.480;7.594;2022-11-21T01:26:59;3.20;99.90
25568;DHT22;13455;51.480;7.594;2022-11-21T01:29:26;3.30;99.90
25568;DHT22;13455;51.480;7.594;2022-11-21T01:31:52;3.30;99.90
25568;DHT22;13455;51.480;7.594;2022-11-21T01:34:17;3.30;99.90
25568;DHT22;13455;51.480;7.594;2022-11-21T01:36:43;3.30;99.90
25568;DHT22;13455;51.480;7.594;2022-11-21T01:39:10;3.30;99.90
25568;DHT22;13455;51.480;7.594;2022-11-21T01:41:41;3.30;99.90
25568;DHT22;13455;51.480;7.594;2022-11-21T01:46:41;4.20;99.90
25568;DHT22;13455;51.480;7.594;2022-11-21T01:49:10;3.20;99.90
25568;DHT22;13455;51.480;7.594;2022-11-21T01:57:31;3.30;99.90
25568;DHT22;13455;51.480;7.594;2022-11-21T02:00:12;3.30;99.90
25568;DHT22;13455;51.480;7.594;2022-11-21T02:02:43;3.30;99.90
25568;DHT22;13455;51.480;7.594;2022-11-21T02:05:15;3.30;99.90
25568;DHT22;13455;51.480;7.594;2022-11-21T02:07:43;3.20;99.90
25568;DHT22;13455;51.480;7.594;2022-11-21T02:10:11;3.20;99.90
25568;DHT22;13455;51.480;7.594;2022-11-21T02:12:50;3.20;99.90
25568;DHT22;13455;51.480;7.594;2022-11-21T02:15:17;3.20;99.90
25568;DHT22;13455;51.480;7.594;2022-11-21T02:17:43;3.20;99.90
25568;DHT22;13455;51.480;7.594;2022-11-21T02:20:12;3.20;99.90
25568;DHT22;13455;51.480;7.594;2022-11-21T02:25:20;3.10;99.90
25568;DHT22;13455;51.480;7.594;2022-11-21T02:27:48;3.10;99.90
25568;DHT22;13455;51.480;7.594;2022-11-21T02:30:15;3.00;99.90
25568;DHT22;13455;51.480;7.594;2022-11-21T02:32:43;3.00;99.90
25568;DHT22;13455;51.480;7.594;2022-11-21T02:35:15;2.90;99.90
25568;DHT22;13455;51.480;7.594;2022-11-21T02:37:41;2.90;99.90
25568;DHT22;13455;51.480;7.594;2022-11-21T02:40:17;2.90;99.90
25568;DHT22;13455;51.480;7.594;2022-11-21T02:45:33;2.80;99.90
25568;DHT22;13455;51.480;7.594;2022-11-21T02:48:00;2.80;99.90
25568;DHT22;13455;51.480;7.594;2022-11-21T02:50:29;2.90;99.90
25568;DHT22;13455;51.480;7.594;2022-11-21T02:52:55;2.90;99.90
25568;DHT22;13455;51.480;7.594;2022-11-21T02:55:21;2.90;99.90
25568;DHT22;13455;51.480;7.594;2022-11-21T02:57:47;2.90;99.90
25568;DHT22;13455;51.480;7.594;2022-11-21T03:00:13;2.90;99.90
25568;DHT22;13455;51.480;7.594;2022-11-21T03:02:39;2.90;99.90
25568;DHT22;13455;51.480;7.594;2022-11-21T03:05:06;2.90;99.90
25568;DHT22;13455;51.480;7.594;2022-11-21T03:07:32;2.90;99.90
25568;DHT22;13455;51.480;7.594;2022-11-21T03:09:58;2.90;99.90
25568;DHT22;13455;51.480;7.594;2022-11-21T03:12:23;2.80;99.90
25568;DHT22;13455;51.480;7.594;2022-11-21T03:14:49;2.80;99.90
25568;DHT22;13455;51.480;7.594;2022-11-21T03:17:15;2.80;99.90
25568;DHT22;13455;51.480;7.594;2022-11-21T03:19:40;2.80;99.90
25568;DHT22;13455;51.480;7.594;2022-11-21T03:22:06;2.80;99.90
25568;DHT22;13455;51.480;7.594;2022-11-21T03:24:32;2.80;99.90
25568;DHT22;13455;51.480;7.594;2022-11-21T03:26:57;2.80;99.90
25568;DHT22;13455;51.480;7.594;2022-11-21T03:29:23;2.80;99.90
25568;DHT22;13455;51.480;7.594;2022-11-21T03:31:48;2.80;99.90
25568;DHT22;13455;51.480;7.594;2022-11-21T03:34:14;2.90;99.90
25568;DHT22;13455;51.480;7.594;2022-11-21T03:36:40;2.90;99.90
25568;DHT22;13455;51.480;7.594;2022-11-21T03:39:06;2.90;99.90
25568;DHT22;13455;51.480;7.594;2022-11-21T03:41:32;2.90;99.90
25568;DHT22;13455;51.480;7.594;2022-11-21T03:44:09;2.80;99.90
25568;DHT22;13455;51.480;7.594;2022-11-21T03:46:41;2.80;99.90
25568;DHT22;13455;51.480;7.594;2022-11-21T03:49:07;2.70;99.90
25568;DHT22;13455;51.480;7.594;2022-11-21T03:51:34;2.80;99.90
25568;DHT22;13455;51.480;7.594;2022-11-21T03:54:00;2.80;99.90
25568;DHT22;13455;51.480;7.594;2022-11-21T03:56:26;2.80;99.90
25568;DHT22;13455;51.480;7.594;2022-11-21T03:58:53;2.80;99.90
25568;DHT22;13455;51.480;7.594;2022-11-21T04:01:19;2.80;99.90
25568;DHT22;13455;51.480;7.594;2022-11-21T04:03:44;2.80;99.90
25568;DHT22;13455;51.480;7.594;2022-11-21T04:06:11;2.80;99.90
25568;DHT22;13455;51.480;7.594;2022-11-21T04:08:37;2.80;99.90
25568;DHT22;13455;51.480;7.594;2022-11-21T04:11:03;2.70;99.90
25568;DHT22;13455;51.480;7.594;2022-11-21T04:13:29;2.60;99.90
25568;DHT22;13455;51.480;7.594;2022-11-21T04:15:54;2.70;99.90
25568;DHT22;13455;51.480;7.594;2022-11-21T04:18:20;2.70;99.90
25568;DHT22;13455;51.480;7.594;2022-11-21T04:20:46;2.70;99.90
25568;DHT22;13455;51.480;7.594;2022-11-21T04:23:12;2.60;99.90
25568;DHT22;13455;51.480;7.594;2022-11-21T04:25:38;2.60;99.90
25568;DHT22;13455;51.480;7.594;2022-11-21T04:28:04;2.70;99.90
25568;DHT22;13455;51.480;7.594;2022-11-21T04:30:31;1.90;99.90
25568;DHT22;13455;51.480;7.594;2022-11-21T04:32:57;2.50;99.90
25568;DHT22;13455;51.480;7.594;2022-11-21T04:35:23;2.70;99.90
25568;DHT22;13455;51.480;7.594;2022-11-21T04:37:50;2.70;99.90
25568;DHT22;13455;51.480;7.594;2022-11-21T04:40:16;2.70;99.90
25568;DHT22;13455;51.480;7.594;2022-11-21T04:42:45;2.60;99.90
25568;DHT22;13455;51.480;7.594;2022-11-21T04:45:12;2.70;99.90
25568;DHT22;13455;51.480;7.594;2022-11-21T04:47:39;2.70;99.90
25568;DHT22;13455;51.480;7.594;2022-11-21T04:50:06;2.70;99.90
25568;DHT22;13455;51.480;7.594;2022-11-21T04:52:32;3.30;99.90
25568;DHT22;13455;51.480;7.594;2022-11-21T04:54:58;2.60;99.90
25568;DHT22;13455;51.480;7.594;2022-11-21T04:57:25;2.80;99.90
25568;DHT22;13455;51.480;7.594;2022-11-21T04:59:51;2.60;99.90
25568;DHT22;13455;51.480;7.594;2022-11-21T05:02:20;2.70;99.90
25568;DHT22;13455;51.480;7.594;2022-11-21T05:04:46;2.70;99.90
25568;DHT22;13455;51.480;7.594;2022-11-21T05:07:12;2.60;99.90
25568;DHT22;13455;51.480;7.594;2022-11-21T05:09:38;2.70;99.90
25568;DHT22;13455;51.480;7.594;2022-11-21T05:12:04;2.70;99.90
25568;DHT22;13455;51.480;7.594;2022-11-21T05:14:48;2.80;99.90
25568;DHT22;13455;51.480;7.594;2022-11-21T05:17:13;2.80;99.90
25568;DHT22;13455;51.480;7.594;2022-11-21T05:19:39;2.80;99.90
25568;DHT22;13455;51.480;7.594;2022-11-21T05:22:05;2.70;99.90
25568;DHT22;13455;51.480;7.594;2022-11-21T05:24:30;2.80;99.90
25568;DHT22;13455;51.480;7.594;2022-11-21T05:26:56;3.00;99.90
25568;DHT22;13455;51.480;7.594;2022-11-21T05:29:21;2.80;99.90
25568;DHT22;13455;51.480;7.594;2022-11-21T05:31:47;3.30;99.90
25568;DHT22;13455;51.480;7.594;2022-11-21T05:34:13;2.90;99.90
25568;DHT22;13455;51.480;7.594;2022-11-21T05:36:38;2.70;99.90
25568;DHT22;13455;51.480;7.594;2022-11-21T05:39:06;2.80;99.90
25568;DHT22;13455;51.480;7.594;2022-11-21T05:43:58;2.70;99.90
25568;DHT22;13455;51.480;7.594;2022-11-21T10:32:42;5.40;99.90
25568;DHT22;13455;51.480;7.594;2022-11-21T10:35:28;5.40;99.90
25568;DHT22;13455;51.480;7.594;2022-11-21T10:38:00;5.40;99.90
25568;DHT22;13455;51.480;7.594;2022-11-21T10:46:08;5.70;99.90
25568;DHT22;13455;51.480;7.594;2022-11-21T10:48:34;5.80;99.90
25568;DHT22;13455;51.480;7.594;2022-11-21T10:53:38;6.00;99.90
25568;DHT22;13455;51.480;7.594;2022-11-21T10:56:25;6.00;99.90
25568;DHT22;13455;51.480;7.594;2022-11-21T10:58:56;6.10;99.90
25568;DHT22;13455;51.480;7.594;2022-11-21T11:01:30;6.10;99.90
25568;DHT22;13455;51.480;7.594;2022-11-21T11:06:35;6.20;99.90
25568;DHT22;13455;51.480;7.594;2022-11-21T11:09:01;6.30;99.90
25568;DHT22;13455;51.480;7.594;2022-11-21T11:11:26;6.30;99.90
25568;DHT22;13455;51.480;7.594;2022-11-21T11:14:03;6.30;99.90
25568;DHT22;13455;51.480;7.594;2022-11-21T11:16:30;6.30;99.90
25568;DHT22;13455;51.480;7.594;2022-11-21T11:19:16;6.30;99.90
25568;DHT22;13455;51.480;7.594;2022-11-21T11:21:44;6.30;99.90
25568;DHT22;13455;51.480;7.594;2022-11-21T11:29:21;6.50;99.90
25568;DHT22;13455;51.480;7.594;2022-11-21T11:34:40;6.60;99.90
25568;DHT22;13455;51.480;7.594;2022-11-21T11:42:57;6.70;99.90
25568;DHT22;13455;51.480;7.594;2022-11-21T11:48:56;6.90;99.90
25568;DHT22;13455;51.480;7.594;2022-11-21T11:51:27;7.30;99.90
25568;DHT22;13455;51.480;7.594;2022-11-21T11:54:18;7.60;99.90
25568;DHT22;13455;51.480;7.594;2022-11-21T11:56:46;7.80;99.90
25568;DHT22;13455;51.480;7.594;2022-11-21T11:59:18;8.00;99.90
25568;DHT22;13455;51.480;7.594;2022-11-21T12:04:31;8.10;99.90
25568;DHT22;13455;51.480;7.594;2022-11-21T12:07:17;8.20;99.90
25568;DHT22;13455;51.480;7.594;2022-11-21T12:10:03;8.30;99.90
25568;DHT22;13455;51.480;7.594;2022-11-21T12:12:35;8.40;99.90
25568;DHT22;13455;51.480;7.594;2022-11-21T12:23:17;9.30;99.90
25568;DHT22;13455;51.480;7.594;2022-11-21T12:34:01;9.40;99.90
25568;DHT22;13455;51.480;7.594;2022-11-21T12:37:00;9.40;99.90
25568;DHT22;13455;51.480;7.594;2022-11-21T12:45:39;9.40;99.90
25568;DHT22;13455;51.480;7.594;2022-11-21T20:06:47;6.40;99.90
25568;DHT22;13455;51.480;7.594;2022-11-21T20:09:19;6.20;99.90
25568;DHT22;13455;51.480;7.594;2022-11-21T20:11:47;6.20;99.90
25568;DHT22;13455;51.480;7.594;2022-11-21T20:14:13;6.20;99.90
25568;DHT22;13455;51.480;7.594;2022-11-21T20:16:41;6.20;99.90
25568;DHT22;13455;51.480;7.594;2022-11-21T20:19:09;6.30;99.90
25568;DHT22;13455;51.480;7.594;2022-11-21T20:21:36;6.20;99.90
25568;DHT22;13455;51.480;7.594;2022-11-21T20:24:02;6.20;99.90
25568;DHT22;13455;51.480;7.594;2022-11-21T20:26:29;6.30;99.90
25568;DHT22;13455;51.480;7.594;2022-11-21T20:28:55;6.30;99.90
25568;DHT22;13455;51.480;7.594;2022-11-21T20:31:24;6.30;99.90
25568;DHT22;13455;51.480;7.594;2022-11-21T20:33:55;6.30;99.90
25568;DHT22;13455;51.480;7.594;2022-11-21T20:36:24;6.30;99.90
25568;DHT22;13455;51.480;7.594;2022-11-21T20:38:59;6.40;99.90
25568;DHT22;13455;51.480;7.594;2022-11-21T20:41:27;6.40;99.90
25568;DHT22;13455;51.480;7.594;2022-11-21T20:43:55;6.40;99.90
25568;DHT22;13455;51.480;7.594;2022-11-21T20:46:21;6.40;99.90
25568;DHT22;13455;51.480;7.594;2022-11-21T20:48:47;6.40;99.90
25568;DHT22;13455;51.480;7.594;2022-11-21T20:51:13;6.40;99.90
25568;DHT22;13455;51.480;7.594;2022-11-21T20:53:38;6.40;99.90
25568;DHT22;13455;51.480;7.594;2022-11-21T20:56:06;6.50;99.90
25568;DHT22;13455;51.480;7.594;2022-11-21T20:58:34;6.50;99.90
25568;DHT22;13455;51.480;7.594;2022-11-21T21:01:01;6.50;99.90
25568;DHT22;13455;51.480;7.594;2022-11-21T21:03:27;6.50;99.90
25568;DHT22;13455;51.480;7.594;2022-11-21T21:05:58;6.50;99.90
25568;DHT22;13455;51.480;7.594;2022-11-21T21:08:25;6.50;99.90
25568;DHT22;13455;51.480;7.594;2022-11-21T21:10:50;6.50;99.90
25568;DHT22;13455;51.480;7.594;2022-11-21T21:13:16;6.50;99.90
25568;DHT22;13455;51.480;7.594;2022-11-21T21:15:42;6.50;99.90
25568;DHT22;13455;51.480;7.594;2022-11-21T21:18:08;6.50;99.90
25568;DHT22;13455;51.480;7.594;2022-11-21T21:20:34;6.50;99.90
25568;DHT22;13455;51.480;7.594;2022-11-21T21:23:00;6.60;99.90
25568;DHT22;13455;51.480;7.594;2022-11-21T21:25:26;6.60;99.90
25568;DHT22;13455;51.480;7.594;2022-11-21T21:27:52;6.60;99.90
25568;DHT22;13455;51.480;7.594;2022-11-21T21:30:18;6.60;99.90
25568;DHT22;13455;51.480;7.594;2022-11-21T21:32:44;6.60;99.90
25568;DHT22;13455;51.480;7.594;2022-11-21T21:35:10;6.60;99.90
25568;DHT22;13455;51.480;7.594;2022-11-21T21:37:36;6.60;99.90
25568;DHT22;13455;51.480;7.594;2022-11-21T21:40:02;6.60;99.90
25568;DHT22;13455;51.480;7.594;2022-11-21T21:42:27;6.60;99.90
25568;DHT22;13455;51.480;7.594;2022-11-21T21:44:53;6.60;99.90
25568;DHT22;13455;51.480;7.594;2022-11-21T21:47:19;6.60;99.90
25568;DHT22;13455;51.480;7.594;2022-11-21T21:49:49;6.60;99.90
25568;DHT22;13455;51.480;7.594;2022-11-21T21:52:15;6.70;99.90
25568;DHT22;13455;51.480;7.594;2022-11-21T21:54:42;6.70;99.90
25568;DHT22;13455;51.480;7.594;2022-11-21T21:57:08;6.70;99.90
25568;DHT22;13455;51.480;7.594;2022-11-21T21:59:33;6.80;99.90
25568;DHT22;13455;51.480;7.594;2022-11-21T22:01:59;6.80;99.90
25568;DHT22;13455;51.480;7.594;2022-11-21T22:04:25;6.80;99.90
25568;DHT22;13455;51.480;7.594;2022-11-21T22:06:51;6.80;99.90
25568;DHT22;13455;51.480;7.594;2022-11-21T22:09:17;5.90;99.90
25568;DHT22;13455;51.480;7.594;2022-11-21T22:11:42;6.90;99.90
25568;DHT22;13455;51.480;7.594;2022-11-21T22:16:39;7.00;99.90
25568;DHT22;13455;51.480;7.594;2022-11-21T22:19:05;7.00;99.90
25568;DHT22;13455;51.480;7.594;2022-11-21T22:21:33;6.90;99.90
25568;DHT22;13455;51.480;7.594;2022-11-21T22:24:04;6.90;99.90
25568;DHT22;13455;51.480;7.594;2022-11-21T22:26:34;7.00;99.90
25568;DHT22;13455;51.480;7.594;2022-11-21T22:31:28;7.10;99.90
25568;DHT22;13455;51.480;7.594;2022-11-21T22:36:21;7.00;99.90
25568;DHT22;13455;51.480;7.594;2022-11-21T22:38:46;7.00;99.90
25568;DHT22;13455;51.480;7.594;2022-11-21T22:41:14;7.00;99.90
25568;DHT22;13455;51.480;7.594;2022-11-21T22:43:40;7.10;99.90
25568;DHT22;13455;51.480;7.594;2022-11-21T22:46:06;7.00;99.90
25568;DHT22;13455;51.480;7.594;2022-11-21T22:48:32;7.00;99.90
25568;DHT22;13455;51.480;7.594;2022-11-21T22:50:59;7.00;99.90
25568;DHT22;13455;51.480;7.594;2022-11-21T22:53:25;7.00;99.90
25568;DHT22;13455;51.480;7.594;2022-11-21T22:56:01;7.00;99.90
25568;DHT22;13455;51.480;7.594;2022-11-21T22:58:29;7.00;99.90
25568;DHT22;13455;51.480;7.594;2022-11-21T23:03:35;7.00;99.90
25568;DHT22;13455;51.480;7.594;2022-11-21T23:06:06;7.00;99.90
25568;DHT22;13455;51.480;7.594;2022-11-21T23:08:33;7.00;99.90
25568;DHT22;13455;51.480;7.594;2022-11-21T23:11:10;7.00;99.90
25568;DHT22;13455;51.480;7.594;2022-11-21T23:13:38;7.00;99.90
25568;DHT22;13455;51.480;7.594;2022-11-21T23:16:05;6.80;99.90
25568;DHT22;13455;51.480;7.594;2022-11-21T23:18:31;7.00;99.90
25568;DHT22;13455;51.480;7.594;2022-11-21T23:20:58;7.10;99.90
25568;DHT22;13455;51.480;7.594;2022-11-21T23:23:23;6.90;99.90
25568;DHT22;13455;51.480;7.594;2022-11-21T23:25:49;6.90;99.90
25568;DHT22;13455;51.480;7.594;2022-11-21T23:28:15;6.90;99.90
25568;DHT22;13455;51.480;7.594;2022-11-21T23:30:43;6.90;99.90
25568;DHT22;13455;51.480;7.594;2022-11-21T23:33:09;6.90;99.90
25568;DHT22;13455;51.480;7.594;2022-11-21T23:35:35;6.90;99.90
25568;DHT22;13455;51.480;7.594;2022-11-21T23:38:01;7.00;99.90
25568;DHT22;13455;51.480;7.594;2022-11-21T23:40:26;6.90;99.90
25568;DHT22;13455;51.480;7.594;2022-11-21T23:42:52;6.90;99.90
25568;DHT22;13455;51.480;7.594;2022-11-21T23:45:18;6.90;99.90
25568;DHT22;13455;51.480;7.594;2022-11-21T23:47:43;6.80;99.90
25568;DHT22;13455;51.480;7.594;2022-11-21T23:50:09;6.80;99.90
25568;DHT22;13455;51.480;7.594;2022-11-21T23:52:35;6.80;99.90
25568;DHT22;13455;51.480;7.594;2022-11-21T23:55:00;6.80;99.90
25568;DHT22;13455;51.480;7.594;2022-11-21T23:57:26;6.80;99.90
25568;DHT22;13455;51.480;7.594;2022-11-21T23:59:51;7.70;99.90
